sensor_id;sensor_type;location;lat;lon;timestamp;P1;durP1;ratioP1;P2;durP2;ratioP2
59066;SDS011;44854;50.838;4.438;2024-03-02T00:00:01;1.20;;;0.70;;
59066;SDS011;44854;50.838;4.438;2024-03-02T00:02:45;1.75;;;0.70;;
59066;SDS011;44854;50.838;4.438;2024-03-02T00:05:12;1.65;;;0.80;;
59066;SDS011;44854;50.838;4.438;2024-03-02T00:07:42;2.17;;;0.80;;
59066;SDS011;44854;50.838;4.438;2024-03-02T00:10:10;0.50;;;0.50;;
59066;SDS011;44854;50.838;4.438;2024-03-02T00:12:39;1.70;;;1.08;;
59066;SDS011;44854;50.838;4.438;2024-03-02T00:17:55;2.60;;;0.88;;
59066;SDS011;44854;50.838;4.438;2024-03-02T00:20:24;0.52;;;0.45;;
59066;SDS011;44854;50.838;4.438;2024-03-02T00:22:55;0.90;;;0.50;;
59066;SDS011;44854;50.838;4.438;2024-03-02T00:25:49;1.13;;;0.47;;
59066;SDS011;44854;50.838;4.438;2024-03-02T00:28:24;0.68;;;0.50;;
59066;SDS011;44854;50.838;4.438;2024-03-02T00:33:50;1.48;;;0.77;;
59066;SDS011;44854;50.838;4.438;2024-03-02T00:36:21;1.95;;;0.40;;
59066;SDS011;44854;50.838;4.438;2024-03-02T00:38:50;2.10;;;0.52;;
59066;SDS011;44854;50.838;4.438;2024-03-02T00:44:02;0.47;;;0.38;;
59066;SDS011;44854;50.838;4.438;2024-03-02T00:46:29;1.35;;;0.47;;
59066;SDS011;44854;50.838;4.438;2024-03-02T00:49:01;0.70;;;0.47;;
59066;SDS011;44854;50.838;4.438;2024-03-02T00:51:32;1.60;;;0.38;;
59066;SDS011;44854;50.838;4.438;2024-03-02T00:54:00;1.63;;;0.38;;
59066;SDS011;44854;50.838;4.438;2024-03-02T00:56:30;0.40;;;0.30;;
59066;SDS011;44854;50.838;4.438;2024-03-02T00:58:56;0.40;;;0.40;;
59066;SDS011;44854;50.838;4.438;2024-03-02T01:01:22;2.58;;;0.80;;
59066;SDS011;44854;50.838;4.438;2024-03-02T01:03:48;0.60;;;0.32;;
59066;SDS011;44854;50.838;4.438;2024-03-02T01:06:14;0.50;;;0.30;;
59066;SDS011;44854;50.838;4.438;2024-03-02T01:08:41;0.73;;;0.40;;
59066;SDS011;44854;50.838;4.438;2024-03-02T01:11:07;0.63;;;0.38;;
59066;SDS011;44854;50.838;4.438;2024-03-02T01:13:33;0.63;;;0.40;;
59066;SDS011;44854;50.838;4.438;2024-03-02T01:15:59;2.67;;;0.30;;
59066;SDS011;44854;50.838;4.438;2024-03-02T01:18:26;3.05;;;0.40;;
59066;SDS011;44854;50.838;4.438;2024-03-02T01:20:52;0.52;;;0.52;;
59066;SDS011;44854;50.838;4.438;2024-03-02T01:23:20;0.90;;;0.52;;
59066;SDS011;44854;50.838;4.438;2024-03-02T01:25:46;0.88;;;0.60;;
59066;SDS011;44854;50.838;4.438;2024-03-02T01:28:13;0.50;;;0.50;;
59066;SDS011;44854;50.838;4.438;2024-03-02T01:30:39;1.55;;;0.52;;
59066;SDS011;44854;50.838;4.438;2024-03-02T01:33:05;1.50;;;0.52;;
59066;SDS011;44854;50.838;4.438;2024-03-02T01:35:31;3.63;;;0.68;;
59066;SDS011;44854;50.838;4.438;2024-03-02T01:37:57;1.60;;;0.50;;
59066;SDS011;44854;50.838;4.438;2024-03-02T01:40:26;0.70;;;0.40;;
59066;SDS011;44854;50.838;4.438;2024-03-02T01:42:52;2.05;;;0.68;;
59066;SDS011;44854;50.838;4.438;2024-03-02T01:45:19;2.05;;;0.45;;
59066;SDS011;44854;50.838;4.438;2024-03-02T01:47:45;2.28;;;0.38;;
59066;SDS011;44854;50.838;4.438;2024-03-02T01:50:11;2.58;;;0.80;;
59066;SDS011;44854;50.838;4.438;2024-03-02T01:52:37;1.83;;;0.52;;
59066;SDS011;44854;50.838;4.438;2024-03-02T01:55:03;3.33;;;0.60;;
59066;SDS011;44854;50.838;4.438;2024-03-02T01:57:30;0.90;;;0.60;;
59066;SDS011;44854;50.838;4.438;2024-03-02T01:59:57;2.78;;;0.60;;
59066;SDS011;44854;50.838;4.438;2024-03-02T02:02:23;2.30;;;0.70;;
59066;SDS011;44854;50.838;4.438;2024-03-02T02:04:52;1.02;;;0.60;;
59066;SDS011;44854;50.838;4.438;2024-03-02T02:07:17;1.05;;;0.55;;
59066;SDS011;44854;50.838;4.438;2024-03-02T02:09:44;3.97;;;0.95;;
59066;SDS011;44854;50.838;4.438;2024-03-02T02:12:09;2.92;;;0.73;;
59066;SDS011;44854;50.838;4.438;2024-03-02T02:14:36;2.10;;;0.60;;
59066;SDS011;44854;50.838;4.438;2024-03-02T02:17:02;1.77;;;0.65;;
59066;SDS011;44854;50.838;4.438;2024-03-02T02:19:27;4.28;;;1.05;;
59066;SDS011;44854;50.838;4.438;2024-03-02T02:21:53;1.60;;;0.47;;
59066;SDS011;44854;50.838;4.438;2024-03-02T02:24:20;1.98;;;0.90;;
59066;SDS011;44854;50.838;4.438;2024-03-02T02:26:45;2.33;;;0.80;;
59066;SDS011;44854;50.838;4.438;2024-03-02T02:29:11;2.67;;;0.60;;
59066;SDS011;44854;50.838;4.438;2024-03-02T02:31:40;3.70;;;0.90;;
59066;SDS011;44854;50.838;4.438;2024-03-02T02:34:06;4.30;;;1.15;;
59066;SDS011;44854;50.838;4.438;2024-03-02T02:36:36;4.35;;;0.65;;
59066;SDS011;44854;50.838;4.438;2024-03-02T02:39:04;2.15;;;0.73;;
59066;SDS011;44854;50.838;4.438;2024-03-02T02:41:32;3.15;;;0.70;;
59066;SDS011;44854;50.838;4.438;2024-03-02T02:43:58;3.45;;;1.00;;
59066;SDS011;44854;50.838;4.438;2024-03-02T02:46:24;2.05;;;0.70;;
59066;SDS011;44854;50.838;4.438;2024-03-02T02:48:49;4.35;;;1.10;;
59066;SDS011;44854;50.838;4.438;2024-03-02T02:51:16;3.38;;;0.75;;
59066;SDS011;44854;50.838;4.438;2024-03-02T02:53:42;4.38;;;0.82;;
59066;SDS011;44854;50.838;4.438;2024-03-02T02:56:08;4.38;;;0.98;;
59066;SDS011;44854;50.838;4.438;2024-03-02T02:58:34;2.67;;;0.85;;
59066;SDS011;44854;50.838;4.438;2024-03-02T03:01:00;5.28;;;0.95;;
59066;SDS011;44854;50.838;4.438;2024-03-02T03:03:26;5.35;;;1.00;;
59066;SDS011;44854;50.838;4.438;2024-03-02T03:05:53;4.28;;;1.00;;
59066;SDS011;44854;50.838;4.438;2024-03-02T03:08:19;2.05;;;1.10;;
59066;SDS011;44854;50.838;4.438;2024-03-02T03:10:44;2.05;;;0.80;;
59066;SDS011;44854;50.838;4.438;2024-03-02T03:13:10;6.40;;;0.90;;
59066;SDS011;44854;50.838;4.438;2024-03-02T03:15:36;1.23;;;0.80;;
59066;SDS011;44854;50.838;4.438;2024-03-02T03:18:05;2.05;;;0.95;;
59066;SDS011;44854;50.838;4.438;2024-03-02T03:20:32;4.38;;;1.05;;
59066;SDS011;44854;50.838;4.438;2024-03-02T03:22:58;5.97;;;1.10;;
59066;SDS011;44854;50.838;4.438;2024-03-02T03:25:24;3.50;;;1.00;;
59066;SDS011;44854;50.838;4.438;2024-03-02T03:27:50;6.32;;;1.30;;
59066;SDS011;44854;50.838;4.438;2024-03-02T03:30:19;4.25;;;1.20;;
59066;SDS011;44854;50.838;4.438;2024-03-02T03:32:44;3.20;;;0.85;;
59066;SDS011;44854;50.838;4.438;2024-03-02T03:35:10;2.75;;;0.90;;
59066;SDS011;44854;50.838;4.438;2024-03-02T03:37:38;3.40;;;0.95;;
59066;SDS011;44854;50.838;4.438;2024-03-02T03:40:03;4.65;;;1.02;;
59066;SDS011;44854;50.838;4.438;2024-03-02T03:42:38;3.15;;;0.90;;
59066;SDS011;44854;50.838;4.438;2024-03-02T03:45:04;4.88;;;0.80;;
59066;SDS011;44854;50.838;4.438;2024-03-02T03:47:33;4.32;;;1.02;;
59066;SDS011;44854;50.838;4.438;2024-03-02T03:49:59;3.10;;;0.80;;
59066;SDS011;44854;50.838;4.438;2024-03-02T03:52:25;5.03;;;1.00;;
59066;SDS011;44854;50.838;4.438;2024-03-02T03:54:51;4.00;;;0.95;;
59066;SDS011;44854;50.838;4.438;2024-03-02T03:57:16;3.47;;;1.00;;
59066;SDS011;44854;50.838;4.438;2024-03-02T03:59:42;4.80;;;1.00;;
59066;SDS011;44854;50.838;4.438;2024-03-02T04:02:09;4.87;;;1.00;;
59066;SDS011;44854;50.838;4.438;2024-03-02T04:04:36;2.88;;;0.80;;
59066;SDS011;44854;50.838;4.438;2024-03-02T04:07:02;5.65;;;1.13;;
59066;SDS011;44854;50.838;4.438;2024-03-02T04:09:27;4.55;;;1.23;;
59066;SDS011;44854;50.838;4.438;2024-03-02T04:11:54;2.50;;;0.90;;
59066;SDS011;44854;50.838;4.438;2024-03-02T04:14:20;4.93;;;1.13;;
59066;SDS011;44854;50.838;4.438;2024-03-02T04:16:46;3.30;;;0.90;;
59066;SDS011;44854;50.838;4.438;2024-03-02T04:19:11;6.28;;;0.90;;
59066;SDS011;44854;50.838;4.438;2024-03-02T04:21:37;4.47;;;1.48;;
59066;SDS011;44854;50.838;4.438;2024-03-02T04:24:03;4.65;;;0.98;;
59066;SDS011;44854;50.838;4.438;2024-03-02T04:26:29;7.65;;;1.40;;
59066;SDS011;44854;50.838;4.438;2024-03-02T04:28:54;3.08;;;1.23;;
59066;SDS011;44854;50.838;4.438;2024-03-02T04:31:20;4.15;;;1.42;;
59066;SDS011;44854;50.838;4.438;2024-03-02T04:33:46;3.10;;;1.30;;
59066;SDS011;44854;50.838;4.438;2024-03-02T04:36:12;3.03;;;1.02;;
59066;SDS011;44854;50.838;4.438;2024-03-02T04:38:38;3.90;;;1.02;;
59066;SDS011;44854;50.838;4.438;2024-03-02T04:41:04;3.08;;;1.85;;
59066;SDS011;44854;50.838;4.438;2024-03-02T04:43:33;3.13;;;0.93;;
59066;SDS011;44854;50.838;4.438;2024-03-02T04:45:59;5.57;;;1.13;;
59066;SDS011;44854;50.838;4.438;2024-03-02T04:48:25;4.25;;;1.75;;
59066;SDS011;44854;50.838;4.438;2024-03-02T04:50:51;4.03;;;0.93;;
59066;SDS011;44854;50.838;4.438;2024-03-02T04:53:17;6.40;;;1.23;;
59066;SDS011;44854;50.838;4.438;2024-03-02T04:55:43;3.42;;;1.23;;
59066;SDS011;44854;50.838;4.438;2024-03-02T04:58:30;4.47;;;1.17;;
59066;SDS011;44854;50.838;4.438;2024-03-02T05:00:55;3.42;;;1.10;;
59066;SDS011;44854;50.838;4.438;2024-03-02T05:03:22;5.18;;;1.15;;
59066;SDS011;44854;50.838;4.438;2024-03-02T05:05:50;6.32;;;1.20;;
59066;SDS011;44854;50.838;4.438;2024-03-02T05:08:16;5.22;;;1.33;;
59066;SDS011;44854;50.838;4.438;2024-03-02T05:10:42;5.00;;;1.45;;
59066;SDS011;44854;50.838;4.438;2024-03-02T05:13:07;4.30;;;1.25;;
59066;SDS011;44854;50.838;4.438;2024-03-02T05:15:33;9.40;;;2.05;;
59066;SDS011;44854;50.838;4.438;2024-03-02T05:17:59;6.28;;;1.40;;
59066;SDS011;44854;50.838;4.438;2024-03-02T05:20:30;2.85;;;1.23;;
59066;SDS011;44854;50.838;4.438;2024-03-02T05:22:55;5.53;;;1.17;;
59066;SDS011;44854;50.838;4.438;2024-03-02T05:25:22;6.03;;;1.13;;
59066;SDS011;44854;50.838;4.438;2024-03-02T05:27:47;5.05;;;1.17;;
59066;SDS011;44854;50.838;4.438;2024-03-02T05:30:13;6.13;;;1.20;;
59066;SDS011;44854;50.838;4.438;2024-03-02T05:32:39;4.65;;;1.02;;
59066;SDS011;44854;50.838;4.438;2024-03-02T05:35:05;3.20;;;1.25;;
59066;SDS011;44854;50.838;4.438;2024-03-02T05:37:32;11.27;;;3.85;;
59066;SDS011;44854;50.838;4.438;2024-03-02T05:39:59;8.05;;;1.85;;
59066;SDS011;44854;50.838;4.438;2024-03-02T05:42:26;4.88;;;1.30;;
59066;SDS011;44854;50.838;4.438;2024-03-02T05:44:52;9.30;;;1.60;;
59066;SDS011;44854;50.838;4.438;2024-03-02T05:47:18;3.55;;;1.05;;
59066;SDS011;44854;50.838;4.438;2024-03-02T05:49:44;4.50;;;1.23;;
59066;SDS011;44854;50.838;4.438;2024-03-02T05:52:09;10.07;;;1.50;;
59066;SDS011;44854;50.838;4.438;2024-03-02T05:54:36;7.82;;;1.65;;
59066;SDS011;44854;50.838;4.438;2024-03-02T05:57:02;5.32;;;1.20;;
59066;SDS011;44854;50.838;4.438;2024-03-02T05:59:50;5.85;;;1.50;;
59066;SDS011;44854;50.838;4.438;2024-03-02T06:02:16;6.07;;;1.80;;
59066;SDS011;44854;50.838;4.438;2024-03-02T06:04:42;4.18;;;1.45;;
59066;SDS011;44854;50.838;4.438;2024-03-02T06:07:07;3.00;;;1.30;;
59066;SDS011;44854;50.838;4.438;2024-03-02T06:09:33;8.38;;;1.80;;
59066;SDS011;44854;50.838;4.438;2024-03-02T06:11:59;9.10;;;1.63;;
59066;SDS011;44854;50.838;4.438;2024-03-02T06:14:25;8.98;;;1.55;;
59066;SDS011;44854;50.838;4.438;2024-03-02T06:16:51;5.20;;;1.90;;
59066;SDS011;44854;50.838;4.438;2024-03-02T06:19:16;8.32;;;1.55;;
59066;SDS011;44854;50.838;4.438;2024-03-02T06:21:42;9.98;;;1.63;;
59066;SDS011;44854;50.838;4.438;2024-03-02T06:24:08;7.75;;;2.08;;
59066;SDS011;44854;50.838;4.438;2024-03-02T06:26:34;6.15;;;1.48;;
59066;SDS011;44854;50.838;4.438;2024-03-02T06:28:59;7.68;;;1.85;;
59066;SDS011;44854;50.838;4.438;2024-03-02T06:31:27;10.43;;;1.92;;
59066;SDS011;44854;50.838;4.438;2024-03-02T06:33:52;8.90;;;1.42;;
59066;SDS011;44854;50.838;4.438;2024-03-02T06:36:18;7.00;;;1.90;;
59066;SDS011;44854;50.838;4.438;2024-03-02T06:38:44;4.50;;;1.42;;
59066;SDS011;44854;50.838;4.438;2024-03-02T06:41:09;11.05;;;1.83;;
59066;SDS011;44854;50.838;4.438;2024-03-02T06:43:35;6.22;;;1.75;;
59066;SDS011;44854;50.838;4.438;2024-03-02T06:46:01;6.75;;;1.45;;
59066;SDS011;44854;50.838;4.438;2024-03-02T06:48:27;6.80;;;1.30;;
59066;SDS011;44854;50.838;4.438;2024-03-02T06:50:55;5.35;;;1.60;;
59066;SDS011;44854;50.838;4.438;2024-03-02T06:53:21;9.73;;;1.40;;
59066;SDS011;44854;50.838;4.438;2024-03-02T06:55:47;7.45;;;2.75;;
59066;SDS011;44854;50.838;4.438;2024-03-02T06:58:13;7.78;;;1.60;;
59066;SDS011;44854;50.838;4.438;2024-03-02T07:00:40;3.05;;;1.20;;
59066;SDS011;44854;50.838;4.438;2024-03-02T07:03:12;6.35;;;1.50;;
59066;SDS011;44854;50.838;4.438;2024-03-02T07:05:39;6.10;;;2.10;;
59066;SDS011;44854;50.838;4.438;2024-03-02T07:08:05;9.05;;;1.70;;
59066;SDS011;44854;50.838;4.438;2024-03-02T07:10:31;12.38;;;1.52;;
59066;SDS011;44854;50.838;4.438;2024-03-02T07:12:57;12.55;;;2.03;;
59066;SDS011;44854;50.838;4.438;2024-03-02T07:15:25;4.53;;;1.80;;
59066;SDS011;44854;50.838;4.438;2024-03-02T07:17:53;5.47;;;1.33;;
59066;SDS011;44854;50.838;4.438;2024-03-02T07:20:19;5.20;;;1.35;;
59066;SDS011;44854;50.838;4.438;2024-03-02T07:22:45;9.27;;;1.88;;
59066;SDS011;44854;50.838;4.438;2024-03-02T07:25:11;8.18;;;1.85;;
59066;SDS011;44854;50.838;4.438;2024-03-02T07:27:37;10.20;;;1.20;;
59066;SDS011;44854;50.838;4.438;2024-03-02T07:30:04;9.73;;;1.40;;
59066;SDS011;44854;50.838;4.438;2024-03-02T07:32:32;7.68;;;1.35;;
59066;SDS011;44854;50.838;4.438;2024-03-02T07:34:57;8.57;;;1.65;;
59066;SDS011;44854;50.838;4.438;2024-03-02T07:37:23;11.70;;;1.70;;
59066;SDS011;44854;50.838;4.438;2024-03-02T07:39:49;7.75;;;1.65;;
59066;SDS011;44854;50.838;4.438;2024-03-02T07:42:16;10.90;;;1.70;;
59066;SDS011;44854;50.838;4.438;2024-03-02T07:44:43;8.63;;;2.35;;
59066;SDS011;44854;50.838;4.438;2024-03-02T07:47:09;7.13;;;2.05;;
59066;SDS011;44854;50.838;4.438;2024-03-02T07:49:35;7.45;;;1.77;;
59066;SDS011;44854;50.838;4.438;2024-03-02T07:52:00;4.80;;;2.20;;
59066;SDS011;44854;50.838;4.438;2024-03-02T07:54:27;5.75;;;2.20;;
59066;SDS011;44854;50.838;4.438;2024-03-02T07:56:53;7.18;;;2.05;;
59066;SDS011;44854;50.838;4.438;2024-03-02T07:59:19;7.05;;;1.40;;
59066;SDS011;44854;50.838;4.438;2024-03-02T08:04:13;7.07;;;2.17;;
59066;SDS011;44854;50.838;4.438;2024-03-02T08:06:39;5.57;;;1.42;;
59066;SDS011;44854;50.838;4.438;2024-03-02T08:09:05;4.93;;;1.42;;
59066;SDS011;44854;50.838;4.438;2024-03-02T08:11:34;10.30;;;1.45;;
59066;SDS011;44854;50.838;4.438;2024-03-02T08:14:00;10.60;;;1.70;;
59066;SDS011;44854;50.838;4.438;2024-03-02T08:16:26;6.20;;;1.95;;
59066;SDS011;44854;50.838;4.438;2024-03-02T08:18:52;7.43;;;2.10;;
59066;SDS011;44854;50.838;4.438;2024-03-02T08:21:18;8.85;;;1.70;;
59066;SDS011;44854;50.838;4.438;2024-03-02T08:23:44;10.32;;;2.10;;
59066;SDS011;44854;50.838;4.438;2024-03-02T08:26:11;5.05;;;1.90;;
59066;SDS011;44854;50.838;4.438;2024-03-02T08:28:37;7.07;;;1.58;;
59066;SDS011;44854;50.838;4.438;2024-03-02T08:31:03;6.95;;;1.60;;
59066;SDS011;44854;50.838;4.438;2024-03-02T08:33:30;10.25;;;1.92;;
59066;SDS011;44854;50.838;4.438;2024-03-02T08:35:55;8.70;;;1.30;;
59066;SDS011;44854;50.838;4.438;2024-03-02T08:38:21;8.13;;;2.20;;
59066;SDS011;44854;50.838;4.438;2024-03-02T08:40:49;15.52;;;2.22;;
59066;SDS011;44854;50.838;4.438;2024-03-02T08:43:15;12.43;;;1.85;;
59066;SDS011;44854;50.838;4.438;2024-03-02T08:45:41;7.18;;;1.63;;
59066;SDS011;44854;50.838;4.438;2024-03-02T08:48:07;9.02;;;1.75;;
59066;SDS011;44854;50.838;4.438;2024-03-02T08:50:34;8.30;;;1.70;;
59066;SDS011;44854;50.838;4.438;2024-03-02T08:53:00;12.75;;;1.95;;
59066;SDS011;44854;50.838;4.438;2024-03-02T08:55:26;12.55;;;2.33;;
59066;SDS011;44854;50.838;4.438;2024-03-02T08:57:51;7.60;;;1.92;;
59066;SDS011;44854;50.838;4.438;2024-03-02T09:00:17;7.22;;;1.58;;
59066;SDS011;44854;50.838;4.438;2024-03-02T09:02:44;10.05;;;1.70;;
59066;SDS011;44854;50.838;4.438;2024-03-02T09:05:10;7.30;;;1.38;;
59066;SDS011;44854;50.838;4.438;2024-03-02T09:07:36;5.63;;;1.52;;
59066;SDS011;44854;50.838;4.438;2024-03-02T09:10:03;5.57;;;1.48;;
59066;SDS011;44854;50.838;4.438;2024-03-02T09:12:30;6.60;;;1.57;;
59066;SDS011;44854;50.838;4.438;2024-03-02T09:14:56;8.30;;;1.63;;
59066;SDS011;44854;50.838;4.438;2024-03-02T09:17:22;8.52;;;1.80;;
59066;SDS011;44854;50.838;4.438;2024-03-02T09:19:48;9.27;;;1.83;;
59066;SDS011;44854;50.838;4.438;2024-03-02T09:22:17;14.57;;;2.42;;
59066;SDS011;44854;50.838;4.438;2024-03-02T09:24:43;6.70;;;1.58;;
59066;SDS011;44854;50.838;4.438;2024-03-02T09:27:09;9.93;;;1.77;;
59066;SDS011;44854;50.838;4.438;2024-03-02T09:29:35;13.77;;;1.65;;
59066;SDS011;44854;50.838;4.438;2024-03-02T09:32:01;14.48;;;2.35;;
59066;SDS011;44854;50.838;4.438;2024-03-02T09:34:27;8.98;;;1.92;;
59066;SDS011;44854;50.838;4.438;2024-03-02T09:36:53;17.08;;;1.70;;
59066;SDS011;44854;50.838;4.438;2024-03-02T09:39:18;10.98;;;2.65;;
59066;SDS011;44854;50.838;4.438;2024-03-02T09:41:44;12.75;;;1.88;;
59066;SDS011;44854;50.838;4.438;2024-03-02T09:44:12;4.97;;;1.65;;
59066;SDS011;44854;50.838;4.438;2024-03-02T09:46:39;10.05;;;1.60;;
59066;SDS011;44854;50.838;4.438;2024-03-02T09:49:04;5.57;;;1.40;;
59066;SDS011;44854;50.838;4.438;2024-03-02T09:51:31;19.75;;;2.40;;
59066;SDS011;44854;50.838;4.438;2024-03-02T09:53:58;5.63;;;1.67;;
59066;SDS011;44854;50.838;4.438;2024-03-02T09:56:26;9.88;;;2.08;;
59066;SDS011;44854;50.838;4.438;2024-03-02T09:58:52;12.55;;;2.03;;
59066;SDS011;44854;50.838;4.438;2024-03-02T10:01:17;5.93;;;1.80;;
59066;SDS011;44854;50.838;4.438;2024-03-02T10:03:44;7.43;;;1.65;;
59066;SDS011;44854;50.838;4.438;2024-03-02T10:08:52;15.02;;;2.03;;
59066;SDS011;44854;50.838;4.438;2024-03-02T10:11:30;8.15;;;1.63;;
59066;SDS011;44854;50.838;4.438;2024-03-02T10:14:05;14.50;;;1.73;;
59066;SDS011;44854;50.838;4.438;2024-03-02T10:16:35;13.13;;;2.40;;
59066;SDS011;44854;50.838;4.438;2024-03-02T10:21:47;11.13;;;1.90;;
59066;SDS011;44854;50.838;4.438;2024-03-02T10:24:14;7.95;;;1.67;;
59066;SDS011;44854;50.838;4.438;2024-03-02T10:26:42;10.02;;;1.45;;
59066;SDS011;44854;50.838;4.438;2024-03-02T10:29:11;16.45;;;2.67;;
59066;SDS011;44854;50.838;4.438;2024-03-02T10:31:38;8.55;;;1.40;;
59066;SDS011;44854;50.838;4.438;2024-03-02T10:34:04;14.87;;;2.07;;
59066;SDS011;44854;50.838;4.438;2024-03-02T10:36:34;10.90;;;2.00;;
59066;SDS011;44854;50.838;4.438;2024-03-02T10:39:04;8.07;;;1.90;;
59066;SDS011;44854;50.838;4.438;2024-03-02T10:41:33;8.02;;;1.40;;
59066;SDS011;44854;50.838;4.438;2024-03-02T10:44:03;6.75;;;1.65;;
59066;SDS011;44854;50.838;4.438;2024-03-02T10:46:30;8.95;;;1.80;;
59066;SDS011;44854;50.838;4.438;2024-03-02T10:48:58;7.93;;;1.70;;
59066;SDS011;44854;50.838;4.438;2024-03-02T10:51:28;8.73;;;2.20;;
59066;SDS011;44854;50.838;4.438;2024-03-02T10:53:56;6.95;;;1.48;;
59066;SDS011;44854;50.838;4.438;2024-03-02T10:56:32;5.68;;;1.35;;
59066;SDS011;44854;50.838;4.438;2024-03-02T10:59:03;6.68;;;2.28;;
59066;SDS011;44854;50.838;4.438;2024-03-02T11:01:48;6.00;;;1.60;;
59066;SDS011;44854;50.838;4.438;2024-03-02T11:04:15;9.05;;;1.67;;
59066;SDS011;44854;50.838;4.438;2024-03-02T11:06:52;9.93;;;1.80;;
59066;SDS011;44854;50.838;4.438;2024-03-02T11:09:22;13.50;;;1.77;;
59066;SDS011;44854;50.838;4.438;2024-03-02T11:12:03;10.70;;;2.03;;
59066;SDS011;44854;50.838;4.438;2024-03-02T11:14:40;13.55;;;2.35;;
59066;SDS011;44854;50.838;4.438;2024-03-02T11:17:09;9.45;;;1.70;;
59066;SDS011;44854;50.838;4.438;2024-03-02T11:19:38;6.65;;;1.80;;
59066;SDS011;44854;50.838;4.438;2024-03-02T11:22:05;10.65;;;2.00;;
59066;SDS011;44854;50.838;4.438;2024-03-02T11:24:33;9.88;;;1.77;;
59066;SDS011;44854;50.838;4.438;2024-03-02T11:26:59;9.45;;;2.28;;
59066;SDS011;44854;50.838;4.438;2024-03-02T11:32:01;6.72;;;1.83;;
59066;SDS011;44854;50.838;4.438;2024-03-02T11:36:56;6.63;;;1.73;;
59066;SDS011;44854;50.838;4.438;2024-03-02T11:39:26;9.43;;;1.77;;
59066;SDS011;44854;50.838;4.438;2024-03-02T11:41:53;6.10;;;1.55;;
59066;SDS011;44854;50.838;4.438;2024-03-02T11:44:19;3.83;;;1.77;;
59066;SDS011;44854;50.838;4.438;2024-03-02T11:46:45;5.80;;;1.77;;
59066;SDS011;44854;50.838;4.438;2024-03-02T11:49:41;11.13;;;2.17;;
59066;SDS011;44854;50.838;4.438;2024-03-02T11:52:09;6.40;;;1.70;;
59066;SDS011;44854;50.838;4.438;2024-03-02T11:54:37;10.15;;;1.75;;
59066;SDS011;44854;50.838;4.438;2024-03-02T11:57:11;8.85;;;1.52;;
59066;SDS011;44854;50.838;4.438;2024-03-02T11:59:38;7.50;;;1.77;;
59066;SDS011;44854;50.838;4.438;2024-03-02T12:02:03;10.00;;;1.55;;
59066;SDS011;44854;50.838;4.438;2024-03-02T12:04:29;9.35;;;2.40;;
59066;SDS011;44854;50.838;4.438;2024-03-02T12:06:59;8.43;;;1.60;;
59066;SDS011;44854;50.838;4.438;2024-03-02T12:09:29;7.10;;;1.58;;
59066;SDS011;44854;50.838;4.438;2024-03-02T12:12:28;6.82;;;1.90;;
59066;SDS011;44854;50.838;4.438;2024-03-02T12:14:51;4.90;;;1.52;;
59066;SDS011;44854;50.838;4.438;2024-03-02T12:17:20;6.22;;;1.60;;
59066;SDS011;44854;50.838;4.438;2024-03-02T12:19:47;4.75;;;1.10;;
59066;SDS011;44854;50.838;4.438;2024-03-02T12:22:13;8.90;;;2.22;;
59066;SDS011;44854;50.838;4.438;2024-03-02T12:24:40;7.28;;;1.73;;
59066;SDS011;44854;50.838;4.438;2024-03-02T12:27:10;5.65;;;1.50;;
59066;SDS011;44854;50.838;4.438;2024-03-02T12:29:36;4.53;;;1.42;;
59066;SDS011;44854;50.838;4.438;2024-03-02T12:32:03;3.50;;;1.23;;
59066;SDS011;44854;50.838;4.438;2024-03-02T12:34:30;5.57;;;1.30;;
59066;SDS011;44854;50.838;4.438;2024-03-02T12:36:56;4.32;;;1.27;;
59066;SDS011;44854;50.838;4.438;2024-03-02T12:39:22;6.90;;;1.55;;
59066;SDS011;44854;50.838;4.438;2024-03-02T12:41:49;4.07;;;1.23;;
59066;SDS011;44854;50.838;4.438;2024-03-02T12:44:19;5.07;;;1.25;;
59066;SDS011;44854;50.838;4.438;2024-03-02T12:46:45;3.00;;;1.50;;
59066;SDS011;44854;50.838;4.438;2024-03-02T12:49:12;5.53;;;1.17;;
59066;SDS011;44854;50.838;4.438;2024-03-02T12:51:41;10.10;;;2.15;;
59066;SDS011;44854;50.838;4.438;2024-03-02T12:54:08;6.72;;;1.48;;
59066;SDS011;44854;50.838;4.438;2024-03-02T12:56:37;8.83;;;1.60;;
59066;SDS011;44854;50.838;4.438;2024-03-02T12:59:03;5.78;;;1.40;;
59066;SDS011;44854;50.838;4.438;2024-03-02T13:01:30;7.00;;;1.35;;
59066;SDS011;44854;50.838;4.438;2024-03-02T13:03:57;5.78;;;1.02;;
59066;SDS011;44854;50.838;4.438;2024-03-02T13:06:24;5.93;;;1.15;;
59066;SDS011;44854;50.838;4.438;2024-03-02T13:08:53;4.38;;;1.23;;
59066;SDS011;44854;50.838;4.438;2024-03-02T13:11:20;4.87;;;1.00;;
59066;SDS011;44854;50.838;4.438;2024-03-02T13:13:47;3.03;;;0.80;;
59066;SDS011;44854;50.838;4.438;2024-03-02T13:16:13;7.22;;;1.50;;
59066;SDS011;44854;50.838;4.438;2024-03-02T13:18:40;6.75;;;1.23;;
59066;SDS011;44854;50.838;4.438;2024-03-02T13:21:06;4.55;;;1.20;;
59066;SDS011;44854;50.838;4.438;2024-03-02T13:23:35;2.50;;;0.90;;
59066;SDS011;44854;50.838;4.438;2024-03-02T13:26:01;2.72;;;1.23;;
59066;SDS011;44854;50.838;4.438;2024-03-02T13:28:27;1.88;;;0.90;;
59066;SDS011;44854;50.838;4.438;2024-03-02T13:30:53;4.28;;;1.05;;
59066;SDS011;44854;50.838;4.438;2024-03-02T13:33:19;6.90;;;1.40;;
59066;SDS011;44854;50.838;4.438;2024-03-02T13:35:48;3.90;;;1.10;;
59066;SDS011;44854;50.838;4.438;2024-03-02T13:38:19;3.72;;;1.15;;
59066;SDS011;44854;50.838;4.438;2024-03-02T13:40:45;4.22;;;1.13;;
59066;SDS011;44854;50.838;4.438;2024-03-02T13:43:12;6.45;;;1.30;;
59066;SDS011;44854;50.838;4.438;2024-03-02T13:45:38;7.85;;;1.17;;
59066;SDS011;44854;50.838;4.438;2024-03-02T13:48:04;4.35;;;1.52;;
59066;SDS011;44854;50.838;4.438;2024-03-02T13:50:30;7.43;;;1.40;;
59066;SDS011;44854;50.838;4.438;2024-03-02T13:52:57;8.55;;;1.20;;
59066;SDS011;44854;50.838;4.438;2024-03-02T13:55:22;3.65;;;1.27;;
59066;SDS011;44854;50.838;4.438;2024-03-02T13:57:48;4.63;;;1.30;;
59066;SDS011;44854;50.838;4.438;2024-03-02T14:00:15;4.78;;;1.20;;
59066;SDS011;44854;50.838;4.438;2024-03-02T14:02:42;3.17;;;1.00;;
59066;SDS011;44854;50.838;4.438;2024-03-02T14:05:08;3.15;;;1.23;;
59066;SDS011;44854;50.838;4.438;2024-03-02T14:07:40;4.22;;;1.30;;
59066;SDS011;44854;50.838;4.438;2024-03-02T14:10:06;4.38;;;1.30;;
59066;SDS011;44854;50.838;4.438;2024-03-02T14:12:32;3.35;;;1.25;;
59066;SDS011;44854;50.838;4.438;2024-03-02T14:14:58;3.17;;;1.30;;
59066;SDS011;44854;50.838;4.438;2024-03-02T14:17:27;3.60;;;0.80;;
59066;SDS011;44854;50.838;4.438;2024-03-02T14:19:52;3.58;;;0.93;;
59066;SDS011;44854;50.838;4.438;2024-03-02T14:24:46;2.22;;;0.80;;
59066;SDS011;44854;50.838;4.438;2024-03-02T14:27:13;7.07;;;1.55;;
59066;SDS011;44854;50.838;4.438;2024-03-02T14:29:40;5.28;;;1.45;;
59066;SDS011;44854;50.838;4.438;2024-03-02T14:32:07;4.10;;;1.17;;
59066;SDS011;44854;50.838;4.438;2024-03-02T14:34:33;3.83;;;1.20;;
59066;SDS011;44854;50.838;4.438;2024-03-02T14:36:59;9.88;;;1.20;;
59066;SDS011;44854;50.838;4.438;2024-03-02T14:39:28;3.13;;;1.02;;
59066;SDS011;44854;50.838;4.438;2024-03-02T14:41:55;4.43;;;1.20;;
59066;SDS011;44854;50.838;4.438;2024-03-02T14:44:23;6.72;;;1.10;;
59066;SDS011;44854;50.838;4.438;2024-03-02T14:46:49;5.65;;;1.65;;
59066;SDS011;44854;50.838;4.438;2024-03-02T14:49:15;4.35;;;1.00;;
59066;SDS011;44854;50.838;4.438;2024-03-02T14:51:41;4.97;;;1.10;;
59066;SDS011;44854;50.838;4.438;2024-03-02T14:54:07;6.80;;;1.40;;
59066;SDS011;44854;50.838;4.438;2024-03-02T14:56:32;8.68;;;1.50;;
59066;SDS011;44854;50.838;4.438;2024-03-02T14:58:58;4.45;;;1.63;;
59066;SDS011;44854;50.838;4.438;2024-03-02T15:01:23;5.45;;;1.40;;
59066;SDS011;44854;50.838;4.438;2024-03-02T15:03:52;5.18;;;1.20;;
59066;SDS011;44854;50.838;4.438;2024-03-02T15:06:18;5.07;;;1.10;;
59066;SDS011;44854;50.838;4.438;2024-03-02T15:08:44;3.70;;;1.48;;